地図

経路データ

SID SEASON NUMBER BASIN SUBBASIN NAME ISO_TIME NATURE LAT LON WMO_WIND WMO_PRES WMO_AGENCY TRACK_TYPE DIST2LAND LANDFALL IFLAG USA_AGENCY USA_ATCF_ID USA_LAT USA_LON USA_RECORD USA_STATUS USA_WIND USA_PRES USA_SSHS USA_R34_NE USA_R34_SE USA_R34_SW USA_R34_NW USA_R50_NE USA_R50_SE USA_R50_SW USA_R50_NW USA_R64_NE USA_R64_SE USA_R64_SW USA_R64_NW USA_POCI USA_ROCI USA_RMW USA_EYE TOKYO_LAT TOKYO_LON TOKYO_GRADE TOKYO_WIND TOKYO_PRES TOKYO_R50_DIR TOKYO_R50_LONG TOKYO_R50_SHORT TOKYO_R30_DIR TOKYO_R30_LONG TOKYO_R30_SHORT TOKYO_LAND CMA_LAT CMA_LON CMA_CAT CMA_WIND CMA_PRES HKO_LAT HKO_LON HKO_CAT HKO_WIND HKO_PRES NEWDELHI_LAT NEWDELHI_LON NEWDELHI_GRADE NEWDELHI_WIND NEWDELHI_PRES NEWDELHI_CI NEWDELHI_DP NEWDELHI_POCI REUNION_LAT REUNION_LON REUNION_TYPE REUNION_WIND REUNION_PRES REUNION_TNUM REUNION_CI REUNION_RMW REUNION_R34_NE REUNION_R34_SE REUNION_R34_SW REUNION_R34_NW REUNION_R50_NE REUNION_R50_SE REUNION_R50_SW REUNION_R50_NW REUNION_R64_NE REUNION_R64_SE REUNION_R64_SW REUNION_R64_NW BOM_LAT BOM_LON BOM_TYPE BOM_WIND BOM_PRES BOM_TNUM BOM_CI BOM_RMW BOM_R34_NE BOM_R34_SE BOM_R34_SW BOM_R34_NW BOM_R50_NE BOM_R50_SE BOM_R50_SW BOM_R50_NW BOM_R64_NE BOM_R64_SE BOM_R64_SW BOM_R64_NW BOM_ROCI BOM_POCI BOM_EYE BOM_POS_METHOD BOM_PRES_METHOD NADI_LAT NADI_LON NADI_CAT NADI_WIND NADI_PRES WELLINGTON_LAT WELLINGTON_LON WELLINGTON_WIND WELLINGTON_PRES DS824_LAT DS824_LON DS824_STAGE DS824_WIND DS824_PRES TD9636_LAT TD9636_LON TD9636_STAGE TD9636_WIND TD9636_PRES TD9635_LAT TD9635_LON TD9635_WIND TD9635_PRES TD9635_ROCI NEUMANN_LAT NEUMANN_LON NEUMANN_CLASS NEUMANN_WIND NEUMANN_PRES MLC_LAT MLC_LON MLC_CLASS MLC_WIND MLC_PRES USA_GUST BOM_GUST BOM_GUST_PER REUNION_GUST REUNION_GUST_PER USA_SEAHGT USA_SEARAD_NE USA_SEARAD_SE USA_SEARAD_SW USA_SEARAD_NW STORM_SPEED STORM_DIR
1885267N30304 1885 45 NA NA NOT_NAMED 1885-09-23 12:00:00 TS 29.5000 -56.3000 main 1557 1557 _____________O -1 29.5000 -56.3000 TD 30 8 8
1885267N30304 1885 45 NA NA NOT_NAMED 1885-09-23 15:00:00 TS 29.9125 -56.2377 main 1598 1598 _____________P -1 29.9125 -56.2377 TD 30 8 6
1885267N30304 1885 45 NA NA NOT_NAMED 1885-09-23 18:00:00 TS 30.3000 -56.2000 main 1633 1633 _____________O -1 30.3000 -56.2000 TD 30 7 2
1885267N30304 1885 45 NA NA NOT_NAMED 1885-09-23 21:00:00 TS 30.6500 -56.1998 main 1634 1605 _____________P -1 30.6500 -56.1998 TD 30 7 0
1885267N30304 1885 45 NA NA NOT_NAMED 1885-09-24 00:00:00 TS 31.0000 -56.2000 main 1605 1565 _____________O -1 31.0000 -56.2000 TD 30 8 2
1885267N30304 1885 45 NA NA NOT_NAMED 1885-09-24 03:00:00 TS 31.4000 -56.1576 main 1565 1530 _____________P -1 31.4000 -56.1576 TD 30 8 6
1885267N30304 1885 45 NA NA NOT_NAMED 1885-09-24 06:00:00 TS 31.8000 -56.1000 main 1530 1491 _____________O -1 31.8000 -56.1000 TD 30 8 7
1885267N30304 1885 45 NA NA NOT_NAMED 1885-09-24 09:00:00 TS 32.1800 -56.0574 main 1491 1467 _____________P -1 32.1800 -56.0574 TD 32 7 7
1885267N30304 1885 45 NA NA NOT_NAMED 1885-09-24 12:00:00 TS 32.5000 -56.0000 main 1467 1453 _____________O -1 32.5000 -56.0000 TS 35 6 13
1885267N30304 1885 45 NA NA NOT_NAMED 1885-09-24 15:00:00 TS 32.7225 -55.9075 main 1453 1439 _____________P -1 32.7225 -55.9075 TS 37 4 23
1885267N30304 1885 45 NA NA NOT_NAMED 1885-09-24 18:00:00 TS 32.9000 -55.8000 main 1439 1423 _____________O -1 32.9000 -55.8000 TS 40 4 25
1885267N30304 1885 45 NA NA NOT_NAMED 1885-09-24 21:00:00 TS 33.1000 -55.7000 main 1423 1405 _____________P -1 33.1000 -55.7000 TS 42 4 23
1885267N30304 1885 45 NA NA NOT_NAMED 1885-09-25 00:00:00 TS 33.3000 -55.6000 main 1405 1387 _____________O -1 33.3000 -55.6000 TS 45 4 22
1885267N30304 1885 45 NA NA NOT_NAMED 1885-09-25 03:00:00 TS 33.5075 -55.5000 main 1387 1368 _____________P -1 33.5075 -55.5000 TS 47 4 23
1885267N30304 1885 45 NA NA NOT_NAMED 1885-09-25 06:00:00 TS 33.7000 -55.4000 main 1368 1351 _____________O -1 33.7000 -55.4000 TS 50 4 24
1885267N30304 1885 45 NA NA NOT_NAMED 1885-09-25 09:00:00 TS 33.8650 -55.3074 main 1351 1343 _____________P -1 33.8650 -55.3074 TS 52 3 29
1885267N30304 1885 45 NA NA NOT_NAMED 1885-09-25 12:00:00 TS 34.0000 -55.2000 main 1343 1336 _____________O -1 34.0000 -55.2000 TS 55 3 41
1885267N30304 1885 45 NA NA NOT_NAMED 1885-09-25 15:00:00 TS 34.1075 -55.0500 main 1339 1329 _____________P -1 34.1075 -55.0500 TS 57 3 51
1885267N30304 1885 45 NA NA NOT_NAMED 1885-09-25 18:00:00 TS 34.2000 -54.9000 main 1332 1325 _____________O -1 34.2000 -54.9000 TS 60 3 49
1885267N30304 1885 45 NA NA NOT_NAMED 1885-09-25 21:00:00 TS 34.3000 -54.7850 main 1325 1318 _____________P -1 34.3000 -54.7850 TS 62 3 40
1885267N30304 1885 45 NA NA NOT_NAMED 1885-09-26 00:00:00 TS 34.4000 -54.7000 main 1318 1308 _____________O -1 34.4000 -54.7000 HU 65 2 31
1885267N30304 1885 45 NA NA NOT_NAMED 1885-09-26 03:00:00 TS 34.5000 -54.6425 main 1311 1301 _____________P -1 34.5000 -54.6425 HU 65 2 23
1885267N30304 1885 45 NA NA NOT_NAMED 1885-09-26 06:00:00 TS 34.6000 -54.6000 main 1301 1291 _____________O -1 34.6000 -54.6000 HU 65 2 25
1885267N30304 1885 45 NA NA NOT_NAMED 1885-09-26 09:00:00 TS 34.7000 -54.5350 main 1295 1284 _____________P -1 34.7000 -54.5350 HU 65 2 23
1885267N30304 1885 45 NA NA NOT_NAMED 1885-09-26 12:00:00 TS 34.8000 -54.5000 main 1284 1274 _____________O -1 34.8000 -54.5000 HU 65 2 8
1885267N30304 1885 45 NA NA NOT_NAMED 1885-09-26 15:00:00 TS 34.9075 -54.5349 main 1274 1260 _____________P -1 34.9075 -54.5349 HU 65 2 337
1885267N30304 1885 45 NA NA NOT_NAMED 1885-09-26 18:00:00 TS 35.0000 -54.6000 main 1260 1260 _____________O -1 35.0000 -54.6000 HU 65 2 326
1885267N30304 1885 45 NA NA NOT_NAMED 1885-09-26 21:00:00 TS 35.0500 -54.6500 main 1246 1246 _____________P -1 35.0500 -54.6500 HU 65 1 323
1885267N30304 1885 45 NA NA NOT_NAMED 1885-09-27 00:00:00 TS 35.1000 -54.7000 main 1246 1236 _____________O -1 35.1000 -54.7000 HU 65 2 331
1885267N30304 1885 45 NA NA NOT_NAMED 1885-09-27 03:00:00 TS 35.1925 -54.7425 main 1236 1222 _____________P -1 35.1925 -54.7425 HU 65 2 337
1885267N30304 1885 45 NA NA NOT_NAMED 1885-09-27 06:00:00 TS 35.3000 -54.8000 main 1222 1209 _____________O -1 35.3000 -54.8000 HU 65 2 327
1885267N30304 1885 45 NA NA NOT_NAMED 1885-09-27 09:00:00 TS 35.3925 -54.8925 main 1209 1195 _____________P -1 35.3925 -54.8925 HU 65 3 320
1885267N30304 1885 45 NA NA NOT_NAMED 1885-09-27 12:00:00 TS 35.5000 -55.0000 main 1195 1181 _____________O -1 35.5000 -55.0000 HU 65 3 327
1885267N30304 1885 45 NA NA NOT_NAMED 1885-09-27 15:00:00 TS 35.6500 -55.1000 main 1171 1157 _____________P -1 35.6500 -55.1000 HU 65 3 332
1885267N30304 1885 45 NA NA NOT_NAMED 1885-09-27 18:00:00 TS 35.8000 -55.2000 main 1157 1143 _____________O -1 35.8000 -55.2000 HU 65 3 327
1885267N30304 1885 45 NA NA NOT_NAMED 1885-09-27 21:00:00 TS 35.9000 -55.3001 main 1143 1129 _____________P -1 35.9000 -55.3001 HU 65 3 320
1885267N30304 1885 45 NA NA NOT_NAMED 1885-09-28 00:00:00 TS 36.0000 -55.4000 main 1129 1116 _____________O -1 36.0000 -55.4000 HU 65 3 327
1885267N30304 1885 45 NA NA NOT_NAMED 1885-09-28 03:00:00 TS 36.1500 -55.5000 main 1105 1092 _____________P -1 36.1500 -55.5000 HU 65 3 332
1885267N30304 1885 45 NA NA NOT_NAMED 1885-09-28 06:00:00 TS 36.3000 -55.6000 main 1092 1088 _____________O -1 36.3000 -55.6000 HU 65 3 309
1885267N30304 1885 45 NA NA NOT_NAMED 1885-09-28 09:00:00 TS 36.3100 -55.7444 main 1088 1064 _____________P -1 36.3100 -55.7444 HU 65 3 320
1885267N30304 1885 45 NA NA NOT_NAMED 1885-09-28 12:00:00 TS 36.5000 -55.8000 main 1064 1006 _____________O -1 36.5000 -55.8000 HU 65 8 6
1885267N30304 1885 45 NA NA NOT_NAMED 1885-09-28 15:00:00 TS 37.1526 -55.6458 main 1000 929 _____________P -1 37.1526 -55.6458 HU 62 15 12
1885267N30304 1885 45 NA NA NOT_NAMED 1885-09-28 18:00:00 TS 38.0000 -55.4000 main 929 861 _____________O -1 38.0000 -55.4000 TS 60 16 8
1885267N30304 1885 45 NA NA NOT_NAMED 1885-09-28 21:00:00 TS 38.7252 -55.3510 main 861 797 _____________P -1 38.7252 -55.3510 TS 55 15 12
1885267N30304 1885 45 NA NA NOT_NAMED 1885-09-29 00:00:00 TS 39.5000 -55.0000 main 797 701 _____________O -1 39.5000 -55.0000 TS 50 20 34
1885267N30304 1885 45 NA NA NOT_NAMED 1885-09-29 03:00:00 TS 40.3874 -53.9111 main 689 591 _____________P -1 40.3874 -53.9111 TS 42 26 47
1885267N30304 1885 45 NA NA NOT_NAMED 1885-09-29 06:00:00 TS 41.3000 -52.5000 main 591 522 _____________O -1 41.3000 -52.5000 TS 35 27 49
1885267N30304 1885 45 NA NA NOT_NAMED 1885-09-29 09:00:00 TS 42.1676 -51.2002 main 513 468 _____________P -1 42.1676 -51.2002 TS 32 25 47
1885267N30304 1885 45 NA NA NOT_NAMED 1885-09-29 12:00:00 TS 43.0000 -50.0000 main 472 _____________O -1 43.0000 -50.0000 TD 30 24 47

IBTrACS Databaseについて

本データベースは、米国NOAAが公開する1842年以降の世界の熱帯低気圧のベストトラックデータアーカイブInternational Best Track Archive for Climate Stewardship (IBTrACS)を、ウェブで閲覧しやすい形式に変換したものです。

最終更新日:2021-11-26